createdAt,value
2023-03-06T00:01:23.360Z,100644.72
2023-03-06T00:03:54.313Z,100646.34
2023-03-06T00:06:27.556Z,100644.94
2023-03-06T00:08:57.612Z,100651.06
2023-03-06T00:11:28.338Z,100656.75
2023-03-06T00:13:58.294Z,100654.25
2023-03-06T00:16:30.518Z,100653.94
2023-03-06T00:19:00.605Z,100656.25
2023-03-06T00:21:34.207Z,100653.44
2023-03-06T00:24:04.167Z,100661.81
2023-03-06T00:26:35.234Z,100660.06
2023-03-06T00:29:06.055Z,100669.44
2023-03-06T00:31:39.317Z,100664.16
2023-03-06T00:34:09.839Z,100662.56
2023-03-06T00:36:39.990Z,100659.16
2023-03-06T00:39:12.085Z,100660.44
2023-03-06T00:41:42.352Z,100658.81
2023-03-06T00:44:12.870Z,100662.50
2023-03-06T00:46:45.758Z,100656.72
2023-03-06T00:49:16.468Z,100651.44
2023-03-06T00:51:47.096Z,100658.03
2023-03-06T00:54:17.695Z,100661.97
2023-03-06T00:56:50.900Z,100652.50
2023-03-06T00:59:25.356Z,100647.19
2023-03-06T01:01:56.478Z,100644.22
2023-03-06T01:04:30.079Z,100646.63
2023-03-06T01:06:59.984Z,100649.75
2023-03-06T01:09:30.394Z,100641.97
2023-03-06T01:12:01.588Z,100640.19
2023-03-06T01:14:32.596Z,100648.38
2023-03-06T01:17:02.861Z,100640.75
2023-03-06T01:19:33.115Z,100640.19
2023-03-06T01:22:05.244Z,100640.13
2023-03-06T01:24:34.987Z,100638.47
2023-03-06T01:27:04.655Z,100642.91
2023-03-06T01:29:35.013Z,100641.34
2023-03-06T01:32:05.116Z,100639.94
2023-03-06T01:34:35.405Z,100636.97
2023-03-06T01:37:05.262Z,100631.75
2023-03-06T01:39:34.888Z,100634.50
2023-03-06T01:42:06.124Z,100637.41
2023-03-06T01:44:36.245Z,100634.06
2023-03-06T01:47:06.695Z,100632.28
2023-03-06T01:49:40.477Z,100622.28
2023-03-06T01:52:19.028Z,100613.78
2023-03-06T01:54:55.168Z,100618.19
2023-03-06T01:57:32.030Z,100612.28
2023-03-06T02:00:08.645Z,100614.38
2023-03-06T02:02:49.111Z,100616.53
2023-03-06T02:05:19.169Z,100609.13
2023-03-06T02:07:50.306Z,100611.50
2023-03-06T02:10:21.885Z,100613.78
2023-03-06T02:12:55.281Z,100612.97
2023-03-06T02:15:26.989Z,100612.50
2023-03-06T02:17:57.697Z,100614.66
2023-03-06T02:20:27.412Z,100611.25
2023-03-06T02:23:14.286Z,100618.91
2023-03-06T02:25:50.856Z,100616.88
2023-03-06T02:28:24.353Z,100627.91
2023-03-06T02:30:57.004Z,100635.88
2023-03-06T02:33:29.340Z,100627.06
2023-03-06T02:36:02.572Z,100628.81
2023-03-06T02:38:42.124Z,100630.59
2023-03-06T02:41:13.788Z,100628.50
2023-03-06T02:43:46.131Z,100622.25
2023-03-06T02:46:16.453Z,100620.06
2023-03-06T02:48:46.336Z,100619.03
2023-03-06T02:51:16.564Z,100613.41
2023-03-06T02:53:46.337Z,100615.38
2023-03-06T02:56:17.586Z,100608.53
2023-03-06T02:58:47.973Z,100606.03
2023-03-06T03:01:18.188Z,100604.59
2023-03-06T03:03:47.844Z,100610.81
2023-03-06T03:06:17.993Z,100607.97
2023-03-06T03:08:48.748Z,100616.59
2023-03-06T03:11:18.737Z,100613.06
2023-03-06T03:13:49.613Z,100606.81
2023-03-06T03:16:24.933Z,100611.94
2023-03-06T03:18:55.171Z,100610.81
2023-03-06T03:21:25.811Z,100605.28
2023-03-06T03:23:57.940Z,100593.50
2023-03-06T03:26:30.565Z,100596.38
2023-03-06T03:29:06.292Z,100592.47
2023-03-06T03:31:36.210Z,100591.03
2023-03-06T03:34:06.787Z,100585.38
2023-03-06T03:36:39.977Z,100585.75
2023-03-06T03:39:11.964Z,100589.47
2023-03-06T03:41:43.625Z,100585.22
2023-03-06T03:44:14.929Z,100579.59
2023-03-06T03:46:45.247Z,100575.75
2023-03-06T03:49:20.964Z,100576.06
2023-03-06T03:51:51.085Z,100576.06
2023-03-06T03:54:22.728Z,100578.09
2023-03-06T03:56:54.909Z,100582.53
2023-03-06T03:59:33.253Z,100570.38
2023-03-06T04:02:13.336Z,100568.88
2023-03-06T04:04:52.232Z,100563.59
2023-03-06T04:07:22.201Z,100564.25
2023-03-06T04:09:52.426Z,100567.63
2023-03-06T04:12:23.107Z,100558.16
2023-03-06T04:14:53.371Z,100558.56
2023-03-06T04:17:24.184Z,100558.22
2023-03-06T04:19:55.981Z,100549.81
2023-03-06T04:22:26.061Z,100539.66
2023-03-06T04:24:56.418Z,100538.25
2023-03-06T04:27:26.331Z,100542.03
2023-03-06T04:29:57.484Z,100534.69
2023-03-06T04:32:27.651Z,100530.03
2023-03-06T04:34:58.742Z,100526.47
2023-03-06T04:37:30.896Z,100511.97
2023-03-06T04:40:02.446Z,100510.72
2023-03-06T04:42:32.585Z,100502.03
2023-03-06T04:45:02.193Z,100499.16
2023-03-06T04:47:32.454Z,100500.31
2023-03-06T04:50:02.247Z,100500.88
2023-03-06T04:52:33.198Z,100496.84
2023-03-06T04:55:05.335Z,100494.09
2023-03-06T04:57:35.123Z,100490.44
2023-03-06T05:00:12.391Z,100477.91
2023-03-06T05:02:44.900Z,100485.06
2023-03-06T05:05:15.590Z,100488.16
2023-03-06T05:07:46.398Z,100490.13
2023-03-06T05:10:19.203Z,100479.28
2023-03-06T05:12:50.054Z,100476.00
2023-03-06T05:15:20.120Z,100479.97
2023-03-06T05:17:50.502Z,100480.06
2023-03-06T05:20:20.427Z,100473.66
2023-03-06T05:22:50.673Z,100469.88
2023-03-06T05:25:20.281Z,100472.16
2023-03-06T05:27:50.093Z,100474.44
2023-03-06T05:30:22.310Z,100474.63
2023-03-06T05:32:52.938Z,100470.81
2023-03-06T05:35:24.943Z,100465.28
2023-03-06T05:37:54.735Z,100455.69
2023-03-06T05:40:24.382Z,100453.41
2023-03-06T05:42:54.569Z,100454.28
2023-03-06T05:45:24.396Z,100456.38
2023-03-06T05:47:54.589Z,100455.84
2023-03-06T05:50:24.358Z,100449.94
2023-03-06T05:52:54.208Z,100447.25
2023-03-06T05:55:25.492Z,100442.47
2023-03-06T05:57:55.559Z,100442.03
2023-03-06T06:00:26.339Z,100434.31
2023-03-06T06:02:56.131Z,100431.47
2023-03-06T06:05:26.341Z,100440.38
2023-03-06T06:07:58.007Z,100442.50
2023-03-06T06:10:28.206Z,100437.00
2023-03-06T06:12:57.981Z,100433.66
2023-03-06T06:15:29.937Z,100435.22
2023-03-06T06:18:00.299Z,100440.97
2023-03-06T06:20:30.097Z,100426.47
2023-03-06T06:22:59.821Z,100425.63
2023-03-06T06:25:30.117Z,100431.47
2023-03-06T06:27:59.779Z,100432.78
2023-03-06T06:30:30.235Z,100420.50
2023-03-06T06:33:00.517Z,100423.09
2023-03-06T06:35:30.726Z,100426.78
2023-03-06T06:38:00.543Z,100414.50
2023-03-06T06:40:30.800Z,100430.03
2023-03-06T06:43:00.594Z,100418.75
2023-03-06T06:45:30.771Z,100417.09
2023-03-06T06:48:00.700Z,100415.66
2023-03-06T06:50:30.980Z,100417.09
2023-03-06T06:53:00.784Z,100408.41
2023-03-06T06:55:31.031Z,100410.56
2023-03-06T06:58:00.883Z,100407.19
2023-03-06T07:00:31.232Z,100412.63
2023-03-06T07:03:01.071Z,100421.81
2023-03-06T07:05:31.220Z,100413.56
2023-03-06T07:08:01.045Z,100419.22
2023-03-06T07:10:30.823Z,100417.34
2023-03-06T07:13:01.797Z,100415.00
2023-03-06T07:15:31.978Z,100413.88
2023-03-06T07:18:02.544Z,100404.88
2023-03-06T07:20:33.096Z,100408.03
2023-03-06T07:23:03.516Z,100422.63
2023-03-06T07:25:33.308Z,100420.19
2023-03-06T07:28:03.588Z,100425.25
2023-03-06T07:30:33.618Z,100425.25
2023-03-06T07:33:04.113Z,100417.75
2023-03-06T07:35:33.943Z,100430.13
2023-03-06T07:38:04.293Z,100431.38
2023-03-06T07:40:34.068Z,100428.00
2023-03-06T07:43:18.280Z,100421.88
2023-03-06T07:46:00.765Z,100420.03
2023-03-06T07:48:31.001Z,100421.72
2023-03-06T07:51:03.328Z,100423.09
2023-03-06T07:53:34.468Z,100413.47
2023-03-06T07:56:10.059Z,100418.84
2023-03-06T07:58:42.519Z,100414.44
2023-03-06T08:01:24.616Z,100415.56
2023-03-06T08:03:55.398Z,100411.56
2023-03-06T08:06:28.016Z,100418.25
2023-03-06T08:08:58.840Z,100420.78
2023-03-06T08:11:31.543Z,100421.34
2023-03-06T08:14:01.856Z,100416.25
2023-03-06T08:16:32.256Z,100409.16
2023-03-06T08:19:02.549Z,100408.22
2023-03-06T08:21:32.349Z,100412.13
2023-03-06T08:24:01.985Z,100411.44
2023-03-06T08:26:33.664Z,100410.63
2023-03-06T08:29:04.654Z,100417.50
2023-03-06T08:31:44.161Z,100419.72
2023-03-06T08:34:23.858Z,100427.34
2023-03-06T08:36:54.595Z,100421.56
2023-03-06T08:39:24.873Z,100417.50
2023-03-06T08:41:55.047Z,100415.50
2023-03-06T08:44:24.883Z,100420.25
2023-03-06T08:46:55.086Z,100426.91
2023-03-06T08:49:24.901Z,100408.56
2023-03-06T08:51:56.922Z,100411.94
2023-03-06T08:54:29.368Z,100414.94
2023-03-06T08:56:59.079Z,100421.34
2023-03-06T08:59:29.267Z,100416.38
2023-03-06T09:01:58.930Z,100421.72
2023-03-06T09:04:32.634Z,100425.31
2023-03-06T09:07:02.913Z,100424.44
2023-03-06T09:09:32.835Z,100423.44
2023-03-06T09:12:03.194Z,100425.16
2023-03-06T09:14:33.403Z,100428.41
2023-03-06T09:17:03.569Z,100423.44
2023-03-06T09:19:33.186Z,100424.78
2023-03-06T09:22:02.963Z,100423.34
2023-03-06T09:24:33.977Z,100429.66
2023-03-06T09:27:04.024Z,100428.56
2023-03-06T09:29:34.219Z,100431.22
2023-03-06T09:32:04.616Z,100440.13
2023-03-06T09:34:34.470Z,100439.81
2023-03-06T09:37:05.298Z,100445.03
2023-03-06T09:39:35.041Z,100454.34
2023-03-06T09:42:10.059Z,100456.22
2023-03-06T09:44:42.362Z,100452.28
2023-03-06T09:47:32.807Z,100468.13
2023-03-06T09:50:09.801Z,100469.59
2023-03-06T09:52:53.729Z,100465.59
2023-03-06T09:55:28.304Z,100459.16
2023-03-06T09:58:21.473Z,100473.72
2023-03-06T10:01:26.622Z,100469.94
2023-03-06T10:04:08.637Z,100483.44
2023-03-06T10:06:49.856Z,100486.34
2023-03-06T10:09:39.806Z,100483.00
2023-03-06T10:12:31.858Z,100488.25
2023-03-06T10:15:26.955Z,100495.59
2023-03-06T10:17:58.661Z,100498.81
2023-03-06T10:20:37.853Z,100494.78
2023-03-06T10:23:43.909Z,100502.16
2023-03-06T10:26:39.527Z,100492.56
2023-03-06T10:29:15.805Z,100489.03
2023-03-06T10:31:50.878Z,100494.56
2023-03-06T10:34:29.102Z,100490.31
2023-03-06T10:37:03.610Z,100480.72
2023-03-06T10:39:34.007Z,100477.94
2023-03-06T10:42:04.336Z,100473.53
2023-03-06T10:44:34.135Z,100493.22
2023-03-06T10:47:32.158Z,100499.78
2023-03-06T10:50:05.630Z,100504.75
2023-03-06T10:52:38.055Z,100501.25
2023-03-06T10:55:30.372Z,100500.03
2023-03-06T10:58:19.752Z,100494.47
2023-03-06T11:01:01.023Z,100497.34
2023-03-06T11:03:31.874Z,100494.84
2023-03-06T11:06:15.191Z,100493.34
2023-03-06T11:08:46.030Z,100508.09
2023-03-06T11:11:36.682Z,100510.50
2023-03-06T11:14:19.389Z,100499.59
2023-03-06T11:16:54.344Z,100495.44
2023-03-06T11:19:29.188Z,100486.00
2023-03-06T11:22:27.211Z,100485.59
2023-03-06T11:24:57.665Z,100489.66
2023-03-06T11:27:35.667Z,100493.31
2023-03-06T11:30:18.181Z,100479.03
2023-03-06T11:32:55.139Z,100476.66
2023-03-06T11:35:37.229Z,100486.25
2023-03-06T11:38:15.881Z,100486.78
2023-03-06T11:40:48.065Z,100489.75
2023-03-06T11:43:20.783Z,100482.81
2023-03-06T11:46:06.983Z,100487.63
2023-03-06T11:48:45.098Z,100493.03
2023-03-06T11:51:26.951Z,100503.63
2023-03-06T11:54:00.066Z,100505.94
2023-03-06T11:56:45.185Z,100511.75
2023-03-06T11:59:29.990Z,100500.47
2023-03-06T12:02:15.244Z,100506.94
2023-03-06T12:05:03.627Z,100502.72
2023-03-06T12:08:18.646Z,100506.34
2023-03-06T12:11:03.072Z,100503.53
2023-03-06T12:13:46.691Z,100517.97
2023-03-06T12:16:24.037Z,100509.66
2023-03-06T12:19:17.627Z,100510.50
2023-03-06T12:21:56.380Z,100514.31
2023-03-06T12:24:38.892Z,100508.53
2023-03-06T12:27:20.175Z,100522.66
2023-03-06T12:30:22.170Z,100533.94
2023-03-06T12:33:21.236Z,100536.88
2023-03-06T12:36:18.848Z,100521.75
2023-03-06T12:39:02.568Z,100520.91
2023-03-06T12:41:43.237Z,100525.06
2023-03-06T12:44:19.163Z,100542.31
2023-03-06T12:47:13.110Z,100533.69
2023-03-06T12:49:49.892Z,100539.22
2023-03-06T12:52:31.134Z,100530.44
2023-03-06T12:55:02.805Z,100518.13
2023-03-06T12:57:32.993Z,100526.06
2023-03-06T13:00:02.801Z,100535.09
2023-03-06T13:03:04.025Z,100528.28
2023-03-06T13:05:57.068Z,100523.91
2023-03-06T13:08:58.804Z,100515.16
2023-03-06T13:11:56.451Z,100507.63
2023-03-06T13:14:48.658Z,100498.00
2023-03-06T13:17:22.656Z,100502.41
2023-03-06T13:20:25.378Z,100505.25
2023-03-06T13:22:55.602Z,100499.84
2023-03-06T13:25:39.713Z,100494.69
2023-03-06T13:28:25.221Z,100500.16
2023-03-06T13:30:55.293Z,100494.81
2023-03-06T13:33:32.847Z,100484.28
2023-03-06T13:36:28.931Z,100478.59
2023-03-06T13:39:00.169Z,100482.50
2023-03-06T13:41:32.681Z,100476.50
2023-03-06T13:44:22.410Z,100472.56
2023-03-06T13:47:05.992Z,100468.19
2023-03-06T13:49:37.184Z,100467.97
2023-03-06T13:52:31.319Z,100463.75
2023-03-06T13:55:45.022Z,100450.72
2023-03-06T13:58:29.744Z,100459.22
2023-03-06T14:01:20.924Z,100443.59
2023-03-06T14:04:08.924Z,100441.59
2023-03-06T14:06:39.610Z,100448.69
2023-03-06T14:09:32.241Z,100452.09
2023-03-06T14:12:39.200Z,100446.66
2023-03-06T14:15:43.237Z,100450.81
2023-03-06T14:18:18.714Z,100454.06
2023-03-06T14:20:57.575Z,100450.88
2023-03-06T14:23:43.594Z,100448.53
2023-03-06T14:26:21.706Z,100453.59
2023-03-06T14:28:54.598Z,100451.34
2023-03-06T14:31:27.363Z,100438.25
2023-03-06T14:34:01.026Z,100436.16
2023-03-06T14:36:47.765Z,100437.69
2023-03-06T14:39:32.706Z,100444.28
2023-03-06T14:42:17.421Z,100454.25
2023-03-06T14:44:49.424Z,100449.47
2023-03-06T14:47:28.231Z,100461.00
2023-03-06T14:50:20.429Z,100464.19
2023-03-06T14:52:51.926Z,100463.59
2023-03-06T14:55:25.818Z,100452.00
2023-03-06T14:58:08.760Z,100449.59
2023-03-06T15:00:42.847Z,100438.53
2023-03-06T15:03:23.235Z,100425.13
2023-03-06T15:05:54.290Z,100420.34
2023-03-06T15:08:35.308Z,100421.97
2023-03-06T15:11:08.185Z,100421.09
2023-03-06T15:13:38.039Z,100431.66
2023-03-06T15:16:17.044Z,100427.53
2023-03-06T15:19:06.205Z,100421.81
2023-03-06T15:21:40.264Z,100412.75
2023-03-06T15:24:38.241Z,100406.53
2023-03-06T15:27:17.796Z,100406.00
2023-03-06T15:29:47.559Z,100407.59
2023-03-06T15:32:34.289Z,100407.88
2023-03-06T15:35:38.191Z,100423.84
2023-03-06T15:38:39.046Z,100408.91
2023-03-06T15:41:22.415Z,100405.91
2023-03-06T15:43:54.364Z,100398.59
2023-03-06T15:46:24.092Z,100401.75
2023-03-06T15:48:56.228Z,100395.13
2023-03-06T15:51:26.900Z,100399.97
2023-03-06T15:54:09.956Z,100389.31
2023-03-06T15:56:44.300Z,100389.94
2023-03-06T15:59:25.983Z,100382.59
2023-03-06T16:01:56.158Z,100371.19
2023-03-06T16:04:26.444Z,100366.84
2023-03-06T16:06:56.238Z,100361.03
2023-03-06T16:09:26.462Z,100372.06
2023-03-06T16:11:56.284Z,100376.47
2023-03-06T16:14:26.636Z,100375.75
2023-03-06T16:16:57.701Z,100370.22
2023-03-06T16:19:28.542Z,100361.63
2023-03-06T16:21:58.344Z,100341.53
2023-03-06T16:24:29.363Z,100353.81
2023-03-06T16:27:02.596Z,100355.09
2023-03-06T16:29:33.334Z,100343.66
2023-03-06T16:32:03.347Z,100343.22
2023-03-06T16:34:33.767Z,100338.00
2023-03-06T16:37:03.449Z,100344.50
2023-03-06T16:39:33.932Z,100348.28
2023-03-06T16:42:03.487Z,100343.66
2023-03-06T16:44:33.786Z,100324.41
2023-03-06T16:47:03.571Z,100325.09
2023-03-06T16:49:33.916Z,100322.28
2023-03-06T16:52:05.697Z,100309.44
2023-03-06T16:54:35.995Z,100310.00
2023-03-06T16:57:05.696Z,100300.94
2023-03-06T16:59:36.043Z,100302.53
2023-03-06T17:02:06.137Z,100308.75
2023-03-06T17:04:36.725Z,100317.53
2023-03-06T17:07:06.782Z,100330.84
2023-03-06T17:09:37.093Z,100332.25
2023-03-06T17:12:07.453Z,100319.25
2023-03-06T17:14:39.602Z,100334.38
2023-03-06T17:17:10.105Z,100332.38
2023-03-06T17:19:40.564Z,100341.41
2023-03-06T17:22:10.882Z,100321.25
2023-03-06T17:24:40.453Z,100322.22
2023-03-06T17:27:10.636Z,100316.41
2023-03-06T17:29:40.918Z,100295.78
2023-03-06T17:32:10.595Z,100298.88
2023-03-06T17:34:40.841Z,100295.09
2023-03-06T17:37:11.006Z,100287.31
2023-03-06T17:39:41.048Z,100288.00
2023-03-06T17:42:11.321Z,100278.38
2023-03-06T17:44:41.247Z,100273.31
2023-03-06T17:47:11.478Z,100278.53
2023-03-06T17:49:41.333Z,100270.47
2023-03-06T17:52:12.211Z,100266.50
2023-03-06T17:54:42.393Z,100258.88
2023-03-06T17:57:12.655Z,100262.41
2023-03-06T17:59:47.868Z,100255.03
2023-03-06T18:02:18.856Z,100253.34
2023-03-06T18:04:48.821Z,100252.50
2023-03-06T18:07:18.965Z,100249.66
2023-03-06T18:09:49.722Z,100249.22
2023-03-06T18:12:19.846Z,100244.00
2023-03-06T18:14:51.831Z,100246.16
2023-03-06T18:17:22.066Z,100247.69
2023-03-06T18:19:53.391Z,100235.81
2023-03-06T18:22:23.735Z,100230.72
2023-03-06T18:24:53.999Z,100220.97
2023-03-06T18:27:24.185Z,100223.53
2023-03-06T18:29:54.316Z,100215.22
2023-03-06T18:32:24.591Z,100213.78
2023-03-06T18:34:56.293Z,100211.94
2023-03-06T18:37:26.532Z,100217.66
2023-03-06T18:39:56.707Z,100206.34
2023-03-06T18:42:27.410Z,100201.13
2023-03-06T18:44:57.613Z,100202.38
2023-03-06T18:47:27.732Z,100200.25
2023-03-06T18:49:58.068Z,100199.69
2023-03-06T18:52:28.405Z,100191.53
2023-03-06T18:54:58.735Z,100194.22
2023-03-06T18:57:30.299Z,100188.94
2023-03-06T19:00:00.403Z,100190.78
2023-03-06T19:02:30.853Z,100184.88
2023-03-06T19:05:01.080Z,100182.59
2023-03-06T19:07:30.700Z,100180.06
2023-03-06T19:10:00.881Z,100183.59
2023-03-06T19:12:30.892Z,100184.31
2023-03-06T19:15:01.141Z,100176.69
2023-03-06T19:17:32.529Z,100180.03
2023-03-06T19:20:04.633Z,100171.56
2023-03-06T19:22:36.640Z,100167.22
2023-03-06T19:25:09.023Z,100165.81
2023-03-06T19:27:40.533Z,100166.22
2023-03-06T19:30:11.697Z,100166.19
2023-03-06T19:32:46.777Z,100149.50
2023-03-06T19:35:17.148Z,100144.75
2023-03-06T19:37:47.374Z,100143.31
2023-03-06T19:40:17.101Z,100136.53
2023-03-06T19:42:48.018Z,100134.72
2023-03-06T19:45:17.917Z,100134.56
2023-03-06T19:47:48.121Z,100136.94
2023-03-06T19:50:17.981Z,100134.53
2023-03-06T19:52:48.290Z,100134.06
2023-03-06T19:55:17.970Z,100132.72
2023-03-06T19:57:50.147Z,100121.75
2023-03-06T20:00:20.881Z,100115.88
2023-03-06T20:02:51.029Z,100117.16
2023-03-06T20:05:21.307Z,100117.81
2023-03-06T20:07:51.301Z,100121.91
2023-03-06T20:10:21.645Z,100115.69
2023-03-06T20:12:51.544Z,100122.34
2023-03-06T20:15:23.396Z,100127.56
2023-03-06T20:17:54.841Z,100127.78
2023-03-06T20:20:26.338Z,100128.47
2023-03-06T20:22:56.193Z,100121.50
2023-03-06T20:25:26.612Z,100126.06
2023-03-06T20:27:56.776Z,100123.75
2023-03-06T20:30:36.680Z,100123.38
2023-03-06T20:33:08.341Z,100121.50
2023-03-06T20:35:43.673Z,100119.41
2023-03-06T20:38:14.075Z,100120.63
2023-03-06T20:40:44.376Z,100113.38
2023-03-06T20:43:14.734Z,100108.97
2023-03-06T20:45:56.661Z,100105.47
2023-03-06T20:48:26.902Z,100101.97
2023-03-06T20:51:18.165Z,100102.25
2023-03-06T20:53:50.296Z,100110.22
2023-03-06T20:56:23.833Z,100101.16
2023-03-06T20:58:54.698Z,100095.78
2023-03-06T21:01:27.955Z,100099.56
2023-03-06T21:03:59.374Z,100102.13
2023-03-06T21:06:30.388Z,100104.81
2023-03-06T21:09:02.299Z,100105.50
2023-03-06T21:11:33.471Z,100115.59
2023-03-06T21:14:03.626Z,100110.69
2023-03-06T21:16:34.080Z,100103.59
2023-03-06T21:19:04.300Z,100110.50
2023-03-06T21:21:36.345Z,100100.75
2023-03-06T21:24:06.504Z,100112.47
2023-03-06T21:26:37.024Z,100109.69
2023-03-06T21:29:07.422Z,100101.88
2023-03-06T21:31:38.006Z,100101.34
2023-03-06T21:34:08.160Z,100108.38
2023-03-06T21:36:38.768Z,100107.28
2023-03-06T21:39:08.572Z,100106.19
2023-03-06T21:41:39.247Z,100108.88
2023-03-06T21:44:09.479Z,100101.78
2023-03-06T21:46:39.662Z,100102.25
2023-03-06T21:49:09.998Z,100099.28
2023-03-06T21:51:40.119Z,100101.13
2023-03-06T21:54:12.012Z,100105.09
2023-03-06T21:56:41.944Z,100096.91
2023-03-06T21:59:12.170Z,100091.56
2023-03-06T22:01:43.921Z,100098.44
2023-03-06T22:04:16.623Z,100104.81
2023-03-06T22:06:46.766Z,100107.50
2023-03-06T22:09:20.191Z,100103.78
2023-03-06T22:11:50.225Z,100102.78
2023-03-06T22:14:20.660Z,100098.59
2023-03-06T22:16:52.718Z,100102.84
2023-03-06T22:19:23.130Z,100106.50
2023-03-06T22:21:53.306Z,100102.59
2023-03-06T22:24:23.668Z,100105.97
2023-03-06T22:26:54.362Z,100091.88
2023-03-06T22:29:25.468Z,100083.22
2023-03-06T22:31:55.369Z,100084.41
2023-03-06T22:34:27.682Z,100092.38
2023-03-06T22:36:58.952Z,100089.94
2023-03-06T22:39:29.198Z,100090.06
2023-03-06T22:41:59.405Z,100089.31
2023-03-06T22:44:29.700Z,100096.25
2023-03-06T22:46:59.562Z,100099.13
2023-03-06T22:49:33.016Z,100092.94
2023-03-06T22:52:03.024Z,100100.53
2023-03-06T22:54:33.055Z,100100.78
2023-03-06T22:57:03.318Z,100096.94
2023-03-06T22:59:33.054Z,100094.56
2023-03-06T23:02:02.737Z,100101.97
2023-03-06T23:04:33.062Z,100101.81
2023-03-06T23:07:03.202Z,100104.78
2023-03-06T23:09:34.216Z,100109.22
2023-03-06T23:12:22.533Z,100099.84
2023-03-06T23:15:13.119Z,100100.28
2023-03-06T23:18:02.086Z,100095.47
2023-03-06T23:20:50.149Z,100103.72
2023-03-06T23:23:40.163Z,100113.72
2023-03-06T23:26:15.655Z,100116.84
2023-03-06T23:28:45.988Z,100120.09
2023-03-06T23:31:20.796Z,100116.84
2023-03-06T23:33:51.224Z,100118.53
2023-03-06T23:36:21.556Z,100112.31
2023-03-06T23:38:51.890Z,100112.03
2023-03-06T23:41:23.126Z,100110.06
2023-03-06T23:43:55.276Z,100108.78
2023-03-06T23:46:27.326Z,100106.22
2023-03-06T23:49:00.673Z,100121.22
2023-03-06T23:51:31.830Z,100116.13
2023-03-06T23:54:02.682Z,100116.72
2023-03-06T23:56:33.966Z,100116.72
2023-03-06T23:59:04.895Z,100113.91
